createdAt,value
2022-11-12T00:00:14.645Z,72.50
2022-11-12T00:02:36.437Z,73.82
2022-11-12T00:04:38.222Z,72.27
2022-11-12T00:06:40.559Z,71.36
2022-11-12T00:08:42.398Z,71.29
2022-11-12T00:10:45.056Z,70.67
2022-11-12T00:12:47.290Z,71.40
2022-11-12T00:14:49.086Z,71.42
2022-11-12T00:16:50.935Z,70.87
2022-11-12T00:18:53.155Z,71.81
2022-11-12T00:20:54.918Z,71.92
2022-11-12T00:22:56.703Z,71.99
2022-11-12T00:24:58.920Z,71.21
2022-11-12T00:27:00.730Z,71.81
2022-11-12T00:29:02.690Z,71.01
2022-11-12T00:31:12.146Z,70.97
2022-11-12T00:33:13.978Z,71.26
2022-11-12T00:35:15.789Z,71.28
2022-11-12T00:37:18.832Z,71.14
2022-11-12T00:39:20.574Z,71.42
2022-11-12T00:41:22.339Z,71.17
2022-11-12T00:43:25.126Z,71.30
2022-11-12T00:45:26.888Z,71.57
2022-11-12T00:47:28.695Z,71.99
2022-11-12T00:49:31.022Z,71.72
2022-11-12T00:51:32.811Z,71.23
2022-11-12T00:53:34.603Z,71.40
2022-11-12T00:55:36.849Z,71.56
2022-11-12T00:57:38.897Z,70.85
2022-11-12T00:59:40.846Z,71.02
2022-11-12T01:01:43.224Z,71.00
2022-11-12T01:03:45.423Z,70.65
2022-11-12T01:05:47.385Z,70.43
2022-11-12T01:07:55.620Z,70.22
2022-11-12T01:09:57.881Z,69.89
2022-11-12T01:11:59.656Z,70.54
2022-11-12T01:14:06.455Z,70.73
2022-11-12T01:16:10.823Z,70.55
2022-11-12T01:18:12.854Z,70.57
2022-11-12T01:20:15.062Z,70.59
2022-11-12T01:22:16.937Z,70.47
2022-11-12T01:24:18.702Z,70.54
2022-11-12T01:26:22.845Z,71.20
2022-11-12T01:28:24.973Z,71.09
2022-11-12T01:30:27.013Z,71.65
2022-11-12T01:32:29.213Z,71.36
2022-11-12T01:34:30.985Z,71.23
2022-11-12T01:36:38.677Z,71.59
2022-11-12T01:38:42.922Z,71.47
2022-11-12T01:40:44.685Z,71.44
2022-11-12T01:42:52.697Z,71.44
2022-11-12T01:44:55.057Z,70.50
2022-11-12T01:47:06.539Z,71.16
2022-11-12T01:49:14.567Z,71.44
2022-11-12T01:51:17.104Z,71.28
2022-11-12T01:53:22.123Z,71.01
2022-11-12T01:55:28.401Z,71.51
2022-11-12T01:57:39.262Z,70.37
2022-11-12T01:59:46.548Z,70.74
2022-11-12T02:01:48.610Z,70.43
2022-11-12T02:03:50.868Z,70.21
2022-11-12T02:06:01.263Z,70.15
2022-11-12T02:08:05.818Z,70.89
2022-11-12T02:10:09.185Z,70.58
2022-11-12T02:12:31.267Z,70.69
2022-11-12T02:14:33.462Z,70.96
2022-11-12T02:16:41.318Z,70.74
2022-11-12T02:18:43.118Z,71.22
2022-11-12T02:20:44.940Z,71.32
2022-11-12T02:22:47.100Z,71.62
2022-11-12T02:24:48.864Z,71.31
2022-11-12T02:26:53.535Z,71.23
2022-11-12T02:28:55.803Z,71.69
2022-11-12T02:30:57.619Z,71.32
2022-11-12T02:32:59.844Z,71.23
2022-11-12T02:35:02.009Z,71.47
2022-11-12T02:37:03.802Z,71.78
2022-11-12T02:39:06.244Z,72.32
2022-11-12T02:41:08.422Z,72.73
2022-11-12T02:43:10.236Z,72.99
2022-11-12T02:45:12.146Z,72.67
2022-11-12T02:47:14.311Z,73.67
2022-11-12T02:49:16.262Z,73.24
2022-11-12T02:51:18.095Z,72.84
2022-11-12T02:53:20.428Z,72.39
2022-11-12T02:55:22.251Z,72.93
2022-11-12T02:57:24.458Z,73.12
2022-11-12T02:59:26.632Z,73.56
2022-11-12T03:01:28.648Z,73.50
2022-11-12T03:03:30.465Z,74.01
2022-11-12T03:05:34.271Z,74.37
2022-11-12T03:07:36.107Z,74.29
2022-11-12T03:09:37.881Z,74.04
2022-11-12T03:11:40.311Z,73.65
2022-11-12T03:13:42.451Z,73.29
2022-11-12T03:15:44.606Z,72.52
2022-11-12T03:17:47.091Z,72.91
2022-11-12T03:19:49.048Z,72.71
2022-11-12T03:21:50.852Z,72.62
2022-11-12T03:23:52.984Z,73.44
2022-11-12T03:25:54.808Z,73.66
2022-11-12T03:27:58.673Z,72.99
2022-11-12T03:30:00.910Z,72.88
2022-11-12T03:32:03.052Z,72.79
2022-11-12T03:34:04.904Z,72.15
2022-11-12T03:36:07.747Z,72.03
2022-11-12T03:38:10.038Z,72.35
2022-11-12T03:40:11.907Z,71.08
2022-11-12T03:42:14.037Z,71.43
2022-11-12T03:44:15.946Z,71.10
2022-11-12T03:46:17.746Z,70.57
2022-11-12T03:48:20.213Z,71.41
2022-11-12T03:50:25.796Z,70.39
2022-11-12T03:52:27.695Z,70.05
2022-11-12T03:54:29.837Z,70.91
2022-11-12T03:56:31.660Z,70.81
2022-11-12T03:58:33.488Z,70.88
2022-11-12T04:00:35.646Z,71.23
2022-11-12T04:02:38.134Z,70.13
2022-11-12T04:04:58.353Z,70.91
2022-11-12T04:07:19.527Z,70.67
2022-11-12T04:09:21.352Z,71.50
2022-11-12T04:11:23.383Z,70.50
2022-11-12T04:13:28.311Z,71.32
2022-11-12T04:15:30.074Z,71.34
2022-11-12T04:17:50.423Z,71.63
2022-11-12T04:20:11.223Z,70.95
2022-11-12T04:22:13.076Z,70.82
2022-11-12T04:24:34.900Z,71.14
2022-11-12T04:26:37.019Z,70.24
2022-11-12T04:28:38.849Z,71.20
2022-11-12T04:30:40.629Z,71.78
2022-11-12T04:32:50.327Z,70.60
2022-11-12T04:34:52.845Z,71.08
2022-11-12T04:36:54.720Z,70.79
2022-11-12T04:38:56.826Z,71.03
2022-11-12T04:41:17.287Z,70.92
2022-11-12T04:43:37.583Z,70.20
2022-11-12T04:45:41.684Z,70.29
2022-11-12T04:47:44.164Z,70.39
2022-11-12T04:49:45.970Z,70.15
2022-11-12T04:52:06.125Z,70.70
2022-11-12T04:54:07.916Z,70.43
2022-11-12T04:56:09.783Z,70.03
2022-11-12T04:58:11.987Z,69.99
2022-11-12T05:00:14.230Z,70.29
2022-11-12T05:02:17.220Z,70.38
2022-11-12T05:04:19.485Z,70.72
2022-11-12T05:06:40.114Z,70.48
2022-11-12T05:08:42.029Z,70.74
2022-11-12T05:10:44.606Z,70.62
2022-11-12T05:12:46.456Z,70.22
2022-11-12T05:14:48.354Z,69.60
2022-11-12T05:16:51.380Z,69.35
2022-11-12T05:18:53.209Z,69.66
2022-11-12T05:20:55.135Z,69.14
2022-11-12T05:23:11.735Z,69.48
2022-11-12T05:25:13.556Z,69.45
2022-11-12T05:27:20.967Z,69.97
2022-11-12T05:29:23.158Z,69.49
2022-11-12T05:31:25.100Z,70.16
2022-11-12T05:33:26.898Z,69.86
2022-11-12T05:35:29.087Z,69.64
2022-11-12T05:37:30.869Z,70.63
2022-11-12T05:39:32.782Z,70.51
2022-11-12T05:41:58.053Z,70.04
2022-11-12T05:43:56.864Z,70.06
2022-11-12T05:45:58.693Z,71.21
2022-11-12T05:48:01.045Z,70.84
2022-11-12T05:50:03.441Z,71.30
2022-11-12T05:52:05.532Z,71.19
2022-11-12T05:54:08.161Z,71.33
2022-11-12T05:56:11.243Z,71.14
2022-11-12T05:58:13.143Z,71.28
2022-11-12T06:00:15.903Z,71.30
2022-11-12T06:02:17.930Z,70.71
2022-11-12T06:04:19.839Z,71.11
2022-11-12T06:06:22.042Z,70.42
2022-11-12T06:08:23.959Z,69.87
2022-11-12T06:10:26.001Z,70.04
2022-11-12T06:12:28.291Z,70.43
2022-11-12T06:14:30.063Z,71.10
2022-11-12T06:16:32.262Z,70.97
2022-11-12T06:18:34.646Z,71.39
2022-11-12T06:20:36.553Z,71.83
2022-11-12T06:22:38.608Z,72.01
2022-11-12T06:24:40.742Z,72.66
2022-11-12T06:26:42.524Z,72.41
2022-11-12T06:28:44.993Z,72.20
2022-11-12T06:30:47.250Z,72.04
2022-11-12T06:32:50.194Z,71.42
2022-11-12T06:34:53.715Z,71.07
2022-11-12T06:36:56.009Z,71.13
2022-11-12T06:38:57.873Z,70.63
2022-11-12T06:41:02.544Z,70.18
2022-11-12T06:43:04.834Z,70.15
2022-11-12T06:45:07.447Z,69.63
2022-11-12T06:47:10.408Z,69.25
2022-11-12T06:49:12.710Z,69.56
2022-11-12T06:51:20.197Z,69.27
2022-11-12T06:53:22.078Z,68.83
2022-11-12T06:55:24.223Z,69.45
2022-11-12T06:57:26.137Z,68.75
2022-11-12T06:59:29.506Z,69.16
2022-11-12T07:01:31.807Z,68.23
2022-11-12T07:03:33.776Z,67.39
2022-11-12T07:05:38.052Z,68.24
2022-11-12T07:07:40.864Z,67.63
2022-11-12T07:09:42.658Z,68.45
2022-11-12T07:11:45.054Z,68.27
2022-11-12T07:13:48.070Z,68.57
2022-11-12T07:15:50.355Z,68.10
2022-11-12T07:17:52.186Z,68.01
2022-11-12T07:19:57.184Z,67.41
2022-11-12T07:22:02.739Z,67.52
2022-11-12T07:24:04.735Z,67.67
2022-11-12T07:26:18.843Z,67.65
2022-11-12T07:28:21.467Z,68.97
2022-11-12T07:30:24.039Z,69.89
2022-11-12T07:32:26.208Z,68.77
2022-11-12T07:34:28.030Z,68.74
2022-11-12T07:36:30.002Z,67.69
2022-11-12T07:38:34.587Z,68.27
2022-11-12T07:40:36.411Z,68.81
2022-11-12T07:42:38.528Z,67.91
2022-11-12T07:44:41.014Z,68.19
2022-11-12T07:46:42.910Z,68.36
2022-11-12T07:48:46.329Z,69.38
2022-11-12T07:50:48.510Z,69.09
2022-11-12T07:52:50.729Z,69.34
2022-11-12T07:54:52.626Z,68.58
2022-11-12T07:56:54.981Z,68.31
2022-11-12T07:58:56.858Z,70.08
2022-11-12T08:01:06.978Z,68.93
2022-11-12T08:03:09.138Z,67.94
2022-11-12T08:05:17.573Z,69.43
2022-11-12T08:07:22.210Z,70.03
2022-11-12T08:09:24.454Z,69.41
2022-11-12T08:11:26.668Z,68.92
2022-11-12T08:13:28.514Z,68.83
2022-11-12T08:15:31.668Z,69.58
2022-11-12T08:17:38.586Z,69.09
2022-11-12T08:19:40.446Z,69.02
2022-11-12T08:21:42.579Z,68.44
2022-11-12T08:23:45.024Z,68.04
2022-11-12T08:25:46.852Z,68.20
2022-11-12T08:27:49.231Z,67.57
2022-11-12T08:29:51.008Z,68.29
2022-11-12T08:31:52.785Z,67.35
2022-11-12T08:33:55.065Z,66.99
2022-11-12T08:35:57.052Z,68.10
2022-11-12T08:38:00.434Z,69.46
2022-11-12T08:40:02.875Z,68.90
2022-11-12T08:42:05.043Z,68.16
2022-11-12T08:44:08.630Z,67.72
2022-11-12T08:46:11.184Z,66.17
2022-11-12T08:48:15.317Z,66.04
2022-11-12T08:50:17.106Z,66.55
2022-11-12T08:52:19.401Z,66.17
2022-11-12T08:54:21.879Z,65.12
2022-11-12T08:56:23.698Z,66.09
2022-11-12T08:58:26.766Z,67.24
2022-11-12T09:00:33.319Z,66.70
2022-11-12T09:02:35.170Z,66.14
2022-11-12T09:04:37.326Z,65.94
2022-11-12T09:06:39.215Z,66.31
2022-11-12T09:08:41.109Z,66.40
2022-11-12T09:10:43.633Z,71.65
2022-11-12T09:12:50.247Z,68.12
2022-11-12T09:14:56.115Z,66.10
2022-11-12T09:16:58.404Z,66.97
2022-11-12T09:19:00.147Z,67.09
2022-11-12T09:21:03.583Z,66.64
2022-11-12T09:23:09.242Z,67.01
2022-11-12T09:25:11.000Z,67.23
2022-11-12T09:27:12.857Z,67.27
2022-11-12T09:29:15.202Z,66.94
2022-11-12T09:31:16.956Z,66.04
2022-11-12T09:33:29.435Z,66.65
2022-11-12T09:35:31.819Z,67.59
2022-11-12T09:37:33.662Z,67.93
2022-11-12T09:39:35.492Z,67.91
2022-11-12T09:41:40.806Z,67.59
2022-11-12T09:43:52.417Z,67.13
2022-11-12T09:46:13.916Z,66.08
2022-11-12T09:48:36.800Z,66.28
2022-11-12T09:50:49.687Z,66.06
2022-11-12T09:53:04.350Z,66.18
2022-11-12T09:55:17.427Z,66.70
2022-11-12T09:57:19.282Z,66.90
2022-11-12T09:59:23.668Z,66.54
2022-11-12T10:01:46.783Z,66.70
2022-11-12T10:04:28.555Z,65.69
2022-11-12T10:06:47.078Z,66.20
2022-11-12T10:09:05.294Z,67.03
2022-11-12T10:11:19.383Z,67.46
2022-11-12T10:13:45.373Z,66.53
2022-11-12T10:16:17.437Z,66.73
2022-11-12T10:18:28.425Z,66.63
2022-11-12T10:20:41.856Z,66.04
2022-11-12T10:23:01.982Z,66.80
2022-11-12T10:25:14.956Z,66.18
2022-11-12T10:27:26.207Z,66.07
2022-11-12T10:29:49.433Z,66.22
2022-11-12T10:31:51.187Z,65.58
2022-11-12T10:34:16.089Z,64.86
2022-11-12T10:36:33.644Z,65.15
2022-11-12T10:38:36.954Z,64.25
2022-11-12T10:40:42.770Z,64.82
2022-11-12T10:43:06.875Z,65.05
2022-11-12T10:45:21.815Z,65.44
2022-11-12T10:47:39.022Z,65.49
2022-11-12T10:49:40.832Z,65.12
2022-11-12T10:51:56.839Z,64.30
2022-11-12T10:54:18.892Z,65.11
2022-11-12T10:56:27.406Z,65.24
2022-11-12T10:58:29.735Z,65.54
2022-11-12T11:00:32.895Z,64.63
2022-11-12T11:02:35.018Z,65.23
2022-11-12T11:04:38.112Z,65.71
2022-11-12T11:06:40.375Z,65.87
2022-11-12T11:08:44.356Z,66.42
2022-11-12T11:10:46.147Z,65.87
2022-11-12T11:12:48.309Z,65.41
2022-11-12T11:15:07.603Z,64.87
2022-11-12T11:17:18.418Z,65.17
2022-11-12T11:19:20.903Z,64.73
2022-11-12T11:21:41.955Z,64.87
2022-11-12T11:23:53.887Z,64.74
2022-11-12T11:26:02.930Z,65.40
2022-11-12T11:28:24.956Z,64.31
2022-11-12T11:30:27.386Z,64.73
2022-11-12T11:32:39.267Z,64.63
2022-11-12T11:34:58.102Z,64.99
2022-11-12T11:37:25.839Z,64.71
2022-11-12T11:39:42.591Z,64.62
2022-11-12T11:42:26.263Z,63.89
2022-11-12T11:44:50.893Z,64.38
2022-11-12T11:47:38.635Z,64.96
2022-11-12T11:49:51.223Z,64.40
2022-11-12T11:52:42.632Z,63.74
2022-11-12T11:54:59.382Z,63.97
2022-11-12T11:57:10.166Z,65.00
2022-11-12T11:59:24.366Z,65.23
2022-11-12T12:01:26.295Z,64.96
2022-11-12T12:03:46.434Z,64.50
2022-11-12T12:06:09.869Z,64.60
2022-11-12T12:08:16.496Z,64.21
2022-11-12T12:10:46.259Z,64.28
2022-11-12T12:13:33.334Z,64.68
2022-11-12T12:15:54.525Z,64.99
2022-11-12T12:18:05.270Z,63.99
2022-11-12T12:20:24.216Z,64.09
2022-11-12T12:22:36.172Z,63.86
2022-11-12T12:24:56.201Z,63.80
2022-11-12T12:27:09.223Z,63.71
2022-11-12T12:29:14.574Z,64.25
2022-11-12T12:31:25.810Z,63.12
2022-11-12T12:33:33.300Z,63.32
2022-11-12T12:35:44.906Z,62.87
2022-11-12T12:38:23.365Z,62.99
2022-11-12T12:40:40.794Z,63.15
2022-11-12T12:43:02.664Z,63.23
2022-11-12T12:45:28.683Z,63.69
2022-11-12T12:47:43.307Z,63.34
2022-11-12T12:49:47.827Z,63.80
2022-11-12T12:51:55.442Z,63.08
2022-11-12T12:54:00.099Z,64.74
2022-11-12T12:56:15.337Z,64.66
2022-11-12T12:58:28.241Z,64.27
2022-11-12T13:00:48.678Z,64.65
2022-11-12T13:02:51.528Z,65.33
2022-11-12T13:04:56.524Z,65.33
2022-11-12T13:06:58.775Z,65.50
2022-11-12T13:09:20.741Z,65.05
2022-11-12T13:12:04.500Z,65.73
2022-11-12T13:14:39.149Z,64.79
2022-11-12T13:16:51.150Z,64.75
2022-11-12T13:18:58.101Z,66.31
2022-11-12T13:21:13.946Z,65.93
2022-11-12T13:24:07.494Z,65.69
2022-11-12T13:26:49.202Z,64.46
2022-11-12T13:29:23.238Z,63.94
2022-11-12T13:31:28.834Z,64.83
2022-11-12T13:33:32.714Z,64.82
2022-11-12T13:35:35.801Z,66.05
2022-11-12T13:37:54.473Z,65.05
2022-11-12T13:40:03.814Z,64.75
2022-11-12T13:42:34.139Z,65.11
2022-11-12T13:44:36.456Z,65.13
2022-11-12T13:46:38.554Z,65.41
2022-11-12T13:48:47.140Z,65.65
2022-11-12T13:50:59.502Z,65.60
2022-11-12T13:53:01.373Z,65.68
2022-11-12T13:55:13.099Z,65.38
2022-11-12T13:57:24.068Z,66.33
2022-11-12T13:59:26.491Z,65.75
2022-11-12T14:01:33.708Z,65.22
2022-11-12T14:03:44.124Z,65.68
2022-11-12T14:05:49.625Z,66.44
2022-11-12T14:08:16.731Z,66.22
2022-11-12T14:10:30.804Z,66.53
2022-11-12T14:12:58.208Z,66.42
2022-11-12T14:15:18.618Z,66.14
2022-11-12T14:17:44.170Z,66.99
2022-11-12T14:20:09.383Z,66.99
2022-11-12T14:22:17.478Z,67.12
2022-11-12T14:24:20.647Z,66.79
2022-11-12T14:26:40.598Z,66.94
2022-11-12T14:28:43.343Z,66.73
2022-11-12T14:30:45.617Z,66.12
2022-11-12T14:33:08.135Z,66.26
2022-11-12T14:35:25.204Z,66.53
2022-11-12T14:37:43.337Z,66.25
2022-11-12T14:39:45.688Z,66.44
2022-11-12T14:41:49.320Z,67.64
2022-11-12T14:44:07.733Z,67.44
2022-11-12T14:46:39.543Z,67.05
2022-11-12T14:48:51.695Z,67.83
2022-11-12T14:51:06.120Z,66.91
2022-11-12T14:53:24.794Z,67.76
2022-11-12T14:55:32.296Z,67.63
2022-11-12T14:57:34.776Z,67.88
2022-11-12T14:59:36.825Z,68.42
2022-11-12T15:04:17.880Z,67.82
2022-11-12T15:06:28.918Z,68.66
2022-11-12T15:08:36.426Z,68.87
2022-11-12T15:10:44.493Z,68.62
2022-11-12T15:12:46.307Z,68.45
2022-11-12T15:14:48.371Z,68.64
2022-11-12T15:16:51.547Z,68.03
2022-11-12T15:19:17.500Z,68.64
2022-11-12T15:21:27.872Z,67.80
2022-11-12T15:23:30.492Z,67.42
2022-11-12T15:25:32.784Z,68.30
2022-11-12T15:27:37.959Z,68.54
2022-11-12T15:29:40.185Z,68.07
2022-11-12T15:32:03.493Z,68.14
2022-11-12T15:34:43.603Z,68.06
2022-11-12T15:36:45.860Z,67.53
2022-11-12T15:38:54.548Z,68.24
2022-11-12T15:40:57.884Z,67.99
2022-11-12T15:43:01.859Z,68.10
2022-11-12T15:45:10.687Z,67.96
2022-11-12T15:47:22.710Z,67.92
2022-11-12T15:49:24.892Z,68.12
2022-11-12T15:51:26.835Z,68.32
2022-11-12T15:53:29.063Z,68.18
2022-11-12T15:55:33.007Z,68.67
2022-11-12T15:57:40.911Z,68.15
2022-11-12T15:59:44.261Z,67.60
2022-11-12T16:01:46.591Z,67.49
2022-11-12T16:03:48.455Z,67.97
2022-11-12T16:05:50.343Z,67.85
2022-11-12T16:07:52.510Z,67.99
2022-11-12T16:09:54.537Z,67.84
2022-11-12T16:11:57.565Z,68.20
2022-11-12T16:14:00.178Z,68.16
2022-11-12T16:16:06.495Z,68.27
2022-11-12T16:18:11.879Z,68.57
2022-11-12T16:20:23.265Z,68.46
2022-11-12T16:22:25.381Z,68.11
2022-11-12T16:24:27.516Z,68.09
2022-11-12T16:26:31.322Z,68.62
2022-11-12T16:28:35.024Z,68.12
2022-11-12T16:30:36.812Z,68.28
2022-11-12T16:32:39.069Z,68.36
2022-11-12T16:34:40.852Z,68.55
2022-11-12T16:36:42.929Z,68.05
2022-11-12T16:38:46.261Z,67.83
2022-11-12T16:40:48.379Z,68.44
2022-11-12T16:42:50.651Z,68.25
2022-11-12T16:44:52.757Z,68.71
2022-11-12T16:46:54.574Z,68.47
2022-11-12T16:48:56.893Z,68.43
2022-11-12T16:50:59.548Z,68.30
2022-11-12T16:53:01.380Z,68.21
2022-11-12T16:55:05.046Z,68.09
2022-11-12T16:57:10.837Z,68.29
2022-11-12T16:59:14.408Z,68.15
2022-11-12T17:01:27.573Z,68.18
2022-11-12T17:03:29.943Z,68.50
2022-11-12T17:05:32.086Z,68.56
2022-11-12T17:07:34.407Z,68.56
2022-11-12T17:09:36.600Z,68.31
2022-11-12T17:11:38.669Z,68.41
2022-11-12T17:13:40.587Z,68.40
2022-11-12T17:15:42.742Z,68.06
2022-11-12T17:17:44.537Z,68.45
2022-11-12T17:19:46.475Z,68.01
2022-11-12T17:21:48.830Z,67.97
2022-11-12T17:23:50.904Z,68.77
2022-11-12T17:26:01.560Z,68.58
2022-11-12T17:28:03.754Z,68.51
2022-11-12T17:30:06.200Z,68.63
2022-11-12T17:32:08.052Z,68.44
2022-11-12T17:34:10.415Z,69.27
2022-11-12T17:36:21.106Z,69.66
2022-11-12T17:38:22.954Z,70.09
2022-11-12T17:40:25.080Z,70.00
2022-11-12T17:42:26.849Z,69.96
2022-11-12T17:44:28.607Z,69.62
2022-11-12T17:46:32.785Z,69.50
2022-11-12T17:48:36.388Z,69.31
2022-11-12T17:50:38.425Z,69.58
2022-11-12T17:52:40.572Z,69.67
2022-11-12T17:54:42.437Z,69.91
2022-11-12T17:56:44.829Z,70.78
2022-11-12T17:58:48.681Z,70.63
2022-11-12T18:00:51.834Z,71.18
2022-11-12T18:02:56.131Z,70.12
2022-11-12T18:04:58.348Z,70.26
2022-11-12T18:07:00.289Z,69.87
2022-11-12T18:09:04.964Z,69.40
2022-11-12T18:11:11.834Z,69.94
2022-11-12T18:13:13.702Z,69.90
2022-11-12T18:15:17.012Z,70.95
2022-11-12T18:17:19.450Z,70.50
2022-11-12T18:19:21.637Z,70.85
2022-11-12T18:21:25.190Z,71.09
2022-11-12T18:23:27.636Z,70.60
2022-11-12T18:25:29.710Z,71.48
2022-11-12T18:27:31.851Z,71.31
2022-11-12T18:29:36.011Z,71.24
2022-11-12T18:31:38.148Z,71.76
2022-11-12T18:33:40.149Z,71.52
2022-11-12T18:35:42.693Z,71.60
2022-11-12T18:37:44.967Z,71.75
2022-11-12T18:39:47.380Z,71.48
2022-11-12T18:41:51.391Z,71.57
2022-11-12T18:43:54.542Z,71.76
2022-11-12T18:46:01.057Z,71.72
2022-11-12T18:48:04.523Z,71.71
2022-11-12T18:50:08.771Z,72.28
2022-11-12T18:52:11.034Z,72.03
2022-11-12T18:54:14.023Z,71.80
2022-11-12T18:56:20.879Z,71.85
2022-11-12T18:58:23.329Z,71.87
2022-11-12T19:00:25.815Z,72.13
2022-11-12T19:02:27.998Z,71.86
2022-11-12T19:04:30.277Z,71.60
2022-11-12T19:06:32.623Z,72.82
2022-11-12T19:08:35.198Z,72.39
2022-11-12T19:10:37.215Z,72.74
2022-11-12T19:12:39.805Z,72.54
2022-11-12T19:14:41.841Z,72.45
2022-11-12T19:16:44.868Z,71.71
2022-11-12T19:18:47.309Z,72.51
2022-11-12T19:20:49.192Z,72.38
2022-11-12T19:22:51.129Z,72.09
2022-11-12T19:24:53.266Z,72.87
2022-11-12T19:26:55.509Z,73.01
2022-11-12T19:28:57.341Z,73.21
2022-11-12T19:31:04.098Z,73.39
2022-11-12T19:33:05.849Z,72.68
2022-11-12T19:35:08.184Z,73.81
2022-11-12T19:37:32.429Z,73.73
2022-11-12T19:39:32.722Z,73.77
2022-11-12T19:41:34.687Z,73.55
2022-11-12T19:43:37.545Z,73.22
2022-11-12T19:45:39.424Z,73.74
2022-11-12T19:47:41.205Z,73.17
2022-11-12T19:49:43.375Z,73.83
2022-11-12T19:51:45.355Z,73.67
2022-11-12T19:53:47.452Z,73.71
2022-11-12T19:55:49.586Z,73.24
2022-11-12T19:57:51.624Z,73.97
2022-11-12T19:59:53.411Z,73.12
2022-11-12T20:01:55.546Z,73.00
2022-11-12T20:03:57.407Z,72.68
2022-11-12T20:06:08.019Z,72.91
2022-11-12T20:08:10.150Z,73.30
2022-11-12T20:10:12.047Z,72.90
2022-11-12T20:12:13.866Z,73.16
2022-11-12T20:14:16.154Z,72.94
2022-11-12T20:16:23.917Z,73.05
2022-11-12T20:18:27.646Z,73.26
2022-11-12T20:20:30.103Z,73.62
2022-11-12T20:22:32.511Z,73.09
2022-11-12T20:24:34.583Z,72.72
2022-11-12T20:26:36.930Z,73.34
2022-11-12T20:28:40.828Z,73.65
2022-11-12T20:30:42.680Z,73.33
2022-11-12T20:32:44.862Z,73.03
2022-11-12T20:34:46.638Z,74.33
2022-11-12T20:36:48.577Z,74.24
2022-11-12T20:38:53.048Z,75.06
2022-11-12T20:41:00.447Z,74.90
2022-11-12T20:43:02.338Z,74.25
2022-11-12T20:45:04.993Z,73.96
2022-11-12T20:47:06.897Z,74.55
2022-11-12T20:49:08.866Z,74.64
2022-11-12T20:51:24.664Z,74.87
2022-11-12T20:53:27.343Z,75.50
2022-11-12T20:55:32.442Z,74.82
2022-11-12T20:57:34.588Z,74.80
2022-11-12T20:59:41.162Z,75.11
2022-11-12T21:01:43.006Z,75.40
2022-11-12T21:03:46.436Z,75.93
2022-11-12T21:05:48.186Z,75.83
2022-11-12T21:07:50.068Z,77.55
2022-11-12T21:09:52.167Z,78.38
2022-11-12T21:11:54.174Z,77.85
2022-11-12T21:13:56.027Z,77.43
2022-11-12T21:15:58.139Z,77.30
2022-11-12T21:18:00.054Z,76.35
2022-11-12T21:20:01.841Z,76.76
2022-11-12T21:22:04.008Z,76.93
2022-11-12T21:24:06.428Z,76.63
2022-11-12T21:26:16.602Z,76.62
2022-11-12T21:28:18.745Z,75.83
2022-11-12T21:30:20.673Z,76.01
2022-11-12T21:32:22.473Z,76.11
2022-11-12T21:34:24.610Z,76.82
2022-11-12T21:36:28.193Z,76.37
2022-11-12T21:38:30.387Z,76.77
2022-11-12T21:40:32.846Z,77.33
2022-11-12T21:42:34.638Z,77.17
2022-11-12T21:44:36.392Z,76.73
2022-11-12T21:46:40.390Z,76.69
2022-11-12T21:48:44.578Z,75.72
2022-11-12T21:50:46.623Z,75.84
2022-11-12T21:52:49.121Z,75.85
2022-11-12T21:54:50.993Z,76.31
2022-11-12T21:56:52.757Z,76.06
2022-11-12T21:58:59.570Z,76.09
2022-11-12T22:01:20.147Z,75.96
2022-11-12T22:03:22.105Z,75.35
2022-11-12T22:05:24.653Z,76.21
2022-11-12T22:07:26.479Z,76.50
2022-11-12T22:09:28.350Z,76.92
2022-11-12T22:11:31.069Z,76.64
2022-11-12T22:13:33.988Z,76.39
2022-11-12T22:15:35.915Z,76.85
2022-11-12T22:17:38.388Z,76.80
2022-11-12T22:19:40.178Z,75.99
2022-11-12T22:21:42.867Z,76.22
2022-11-12T22:23:45.842Z,75.86
2022-11-12T22:25:48.446Z,76.74
2022-11-12T22:27:50.260Z,76.69
2022-11-12T22:29:52.416Z,76.63
2022-11-12T22:31:54.226Z,76.16
2022-11-12T22:33:58.382Z,75.99
2022-11-12T22:36:05.122Z,76.81
2022-11-12T22:38:06.970Z,76.88
2022-11-12T22:40:13.351Z,76.28
2022-11-12T22:42:15.888Z,76.57
2022-11-12T22:44:19.248Z,76.70
2022-11-12T22:46:24.047Z,76.20
2022-11-12T22:48:26.549Z,76.27
2022-11-12T22:50:28.809Z,76.64
2022-11-12T22:52:30.629Z,75.74
2022-11-12T22:54:32.783Z,76.11
2022-11-12T22:56:34.678Z,76.18
2022-11-12T22:58:37.875Z,76.46
2022-11-12T23:00:40.167Z,77.03
2022-11-12T23:02:46.348Z,77.52
2022-11-12T23:04:49.392Z,76.78
2022-11-12T23:06:51.619Z,76.58
2022-11-12T23:08:54.692Z,76.87
2022-11-12T23:10:56.660Z,76.90
2022-11-12T23:12:58.780Z,76.86
2022-11-12T23:15:00.766Z,77.13
2022-11-12T23:17:02.762Z,77.51
2022-11-12T23:19:04.893Z,77.17
2022-11-12T23:21:09.986Z,77.73
2022-11-12T23:23:11.769Z,78.02
2022-11-12T23:25:13.911Z,77.61
2022-11-12T23:27:16.051Z,78.08
2022-11-12T23:29:17.906Z,77.74
2022-11-12T23:31:26.010Z,77.91
2022-11-12T23:33:27.879Z,78.52
2022-11-12T23:35:30.474Z,77.96
2022-11-12T23:37:32.876Z,78.49
2022-11-12T23:39:34.719Z,78.07
2022-11-12T23:41:36.747Z,78.34
2022-11-12T23:43:39.067Z,78.29
2022-11-12T23:45:41.959Z,78.40
2022-11-12T23:47:43.854Z,77.33
2022-11-12T23:49:45.999Z,77.73
2022-11-12T23:51:47.866Z,78.30
2022-11-12T23:53:50.159Z,77.99
2022-11-12T23:55:52.670Z,78.13
2022-11-12T23:57:54.452Z,78.58
2022-11-12T23:59:56.256Z,78.23
